Time;durP1;ratioP1;P1;durP2;ratioP2;P2;SDS_P1;SDS_P2;PMS_P1;PMS_P2;Temp;Humidity;BMP_temperature;BMP_pressure;BME280_temperature;BME280_humidity;BME280_pressure;Samples;Min_cycle;Max_cycle;Signal;HPM_P1;HPM_P2
2022/02/27 00:02:05;;;;;;;41.20;13.33;;;0.10;99.90;;;;;;5020322;28;20202;-70
2022/02/27 00:04:34;;;;;;;35.77;14.07;;;0.10;99.90;;;;;;5011357;28;20186;-70
2022/02/27 00:07:03;;;;;;;44.40;15.13;;;0.30;99.90;;;;;;5021242;28;20847;-70
2022/02/27 00:09:32;;;;;;;36.90;13.87;;;0.20;99.90;;;;;;5026857;28;20662;-70
2022/02/27 00:12:04;;;;;;;34.53;14.33;;;0.20;99.90;;;;;;5022685;28;20569;-70
2022/02/27 00:14:33;;;;;;;28.83;13.10;;;0.10;99.90;;;;;;5037083;28;20205;-70
2022/02/27 00:17:02;;;;;;;35.13;13.47;;;0.00;99.90;;;;;;5030382;28;20272;-70
2022/02/27 00:19:31;;;;;;;36.33;12.67;;;-0.10;99.90;;;;;;5027705;28;20541;-70
2022/02/27 00:21:59;;;;;;;32.80;13.90;;;-0.20;99.90;;;;;;5026200;28;20237;-70
2022/02/27 00:24:29;;;;;;;34.07;13.47;;;-0.30;99.90;;;;;;5032370;28;20268;-70
2022/02/27 00:26:58;;;;;;;31.50;14.10;;;-0.30;99.90;;;;;;5015395;28;20789;-70
2022/02/27 00:29:28;;;;;;;33.00;13.03;;;-0.40;99.90;;;;;;5025780;28;20185;-70
2022/02/27 00:31:57;;;;;;;34.00;13.87;;;-0.40;99.90;;;;;;5023250;28;20624;-70
2022/02/27 00:34:25;;;;;;;31.27;13.80;;;-0.50;99.90;;;;;;5023145;28;20225;-70
2022/02/27 00:36:54;;;;;;;30.80;13.20;;;-0.50;99.90;;;;;;5039310;28;20563;-70
2022/02/27 00:39:23;;;;;;;31.67;12.40;;;-0.50;99.90;;;;;;5022326;28;20706;-70
2022/02/27 00:41:52;;;;;;;32.97;12.93;;;-0.50;99.90;;;;;;5025453;28;20197;-70
2022/02/27 00:44:21;;;;;;;29.53;12.97;;;-0.50;99.90;;;;;;5030254;28;20672;-70
2022/02/27 00:46:51;;;;;;;34.40;13.70;;;-0.60;99.90;;;;;;5031219;28;20229;-70
2022/02/27 00:49:22;;;;;;;35.47;13.63;;;-0.60;99.90;;;;;;5027008;28;20202;-70
2022/02/27 00:51:51;;;;;;;49.80;14.37;;;-0.60;99.90;;;;;;5034289;28;20658;-70
2022/02/27 00:54:20;;;;;;;34.57;13.20;;;-0.50;99.90;;;;;;5025520;28;20234;-70
2022/02/27 00:56:48;;;;;;;35.63;13.30;;;-0.50;99.90;;;;;;5029306;28;20193;-70
2022/02/27 00:59:19;;;;;;;33.47;14.17;;;-0.50;99.90;;;;;;5037818;28;20193;-70
2022/02/27 01:01:48;;;;;;;37.17;14.40;;;-0.50;99.90;;;;;;5025192;28;20715;-70
2022/02/27 01:04:18;;;;;;;39.50;14.07;;;-0.40;99.90;;;;;;5027893;28;20206;-70
2022/02/27 01:06:46;;;;;;;39.70;13.17;;;-0.20;99.90;;;;;;5030549;28;20264;-70
2022/02/27 01:09:15;;;;;;;38.43;13.10;;;-0.20;99.90;;;;;;5028442;28;20233;-70
2022/02/27 01:11:43;;;;;;;30.47;12.20;;;-0.20;99.90;;;;;;5011165;28;20635;-70
2022/02/27 01:14:12;;;;;;;31.37;12.27;;;-0.20;99.90;;;;;;5029092;28;20254;-70
2022/02/27 01:16:40;;;;;;;29.30;12.17;;;-0.30;99.90;;;;;;5028694;28;20213;-70
2022/02/27 01:19:09;;;;;;;26.30;11.63;;;-0.30;99.90;;;;;;5033237;28;20197;-70
2022/02/27 01:21:39;;;;;;;25.93;10.97;;;-0.40;99.90;;;;;;5030922;28;20224;-70
2022/02/27 01:24:08;;;;;;;30.60;10.90;;;-0.40;99.90;;;;;;5027771;28;20259;-70
2022/02/27 01:26:36;;;;;;;28.87;10.83;;;-0.60;99.90;;;;;;5024904;28;20198;-71
2022/02/27 01:29:05;;;;;;;26.63;10.97;;;-0.70;99.90;;;;;;5027311;28;20716;-71
2022/02/27 01:31:34;;;;;;;21.90;10.17;;;-0.70;99.90;;;;;;5032067;28;20200;-71
2022/02/27 01:34:03;;;;;;;25.43;10.70;;;-0.80;99.90;;;;;;5026339;28;20643;-71
2022/02/27 01:36:31;;;;;;;27.77;10.50;;;-0.70;99.90;;;;;;5035678;28;20217;-71
2022/02/27 01:39:01;;;;;;;32.17;11.27;;;-0.70;99.90;;;;;;5028517;28;20202;-71
2022/02/27 01:41:29;;;;;;;28.00;10.77;;;-0.60;99.90;;;;;;5034412;28;20359;-72
2022/02/27 01:43:58;;;;;;;24.57;10.60;;;-0.60;99.90;;;;;;5029285;28;20969;-71
2022/02/27 01:46:27;;;;;;;32.33;10.93;;;-0.50;99.90;;;;;;5034568;28;20622;-71
2022/02/27 01:48:55;;;;;;;26.93;9.60;;;-0.40;99.90;;;;;;5015116;28;20613;-71
2022/02/27 01:51:24;;;;;;;25.83;10.03;;;-0.40;99.90;;;;;;5038589;28;20207;-71
2022/02/27 01:53:52;;;;;;;20.20;9.20;;;-0.50;99.90;;;;;;5033909;28;20209;-72
2022/02/27 01:56:25;;;;;;;27.63;10.00;;;-0.50;99.90;;;;;;5030602;28;20224;-71
2022/02/27 01:58:54;;;;;;;23.90;9.30;;;-0.50;99.90;;;;;;5031107;28;20708;-72
2022/02/27 02:01:23;;;;;;;27.37;9.37;;;-0.50;99.90;;;;;;5029591;28;20202;-72
2022/02/27 02:03:51;;;;;;;22.60;9.17;;;-0.60;99.90;;;;;;5030120;28;20201;-73
2022/02/27 02:06:20;;;;;;;27.90;9.20;;;-0.60;99.90;;;;;;5022939;28;20206;-72
2022/02/27 02:08:48;;;;;;;20.67;9.20;;;-0.60;99.90;;;;;;5019486;28;20226;-72
2022/02/27 02:11:16;;;;;;;23.87;8.57;;;-0.50;99.90;;;;;;5027580;28;20201;-72
2022/02/27 02:13:48;;;;;;;24.30;8.27;;;-0.50;99.90;;;;;;5028140;28;20207;-72
2022/02/27 02:16:16;;;;;;;31.70;8.60;;;-0.50;99.90;;;;;;5031850;28;20252;-72
2022/02/27 02:18:45;;;;;;;23.67;9.47;;;-0.50;99.90;;;;;;5028869;28;20201;-72
2022/02/27 02:21:15;;;;;;;27.40;8.57;;;-0.50;99.90;;;;;;5033142;28;20594;-72
2022/02/27 02:23:44;;;;;;;25.13;8.57;;;-0.50;99.90;;;;;;5032269;28;20205;-72
2022/02/27 02:26:12;;;;;;;30.33;8.13;;;-0.50;99.90;;;;;;5031744;28;20224;-72
2022/02/27 02:28:41;;;;;;;28.97;8.73;;;-0.50;99.90;;;;;;5028094;28;20814;-72
2022/02/27 02:31:09;;;;;;;20.77;7.50;;;-0.60;99.90;;;;;;5033658;28;20205;-72
2022/02/27 02:33:40;;;;;;;22.23;8.10;;;-0.50;99.90;;;;;;5027542;28;20206;-72
2022/02/27 02:36:08;;;;;;;16.60;7.73;;;-0.50;99.90;;;;;;5014729;28;20229;-72
2022/02/27 02:38:38;;;;;;;22.73;8.00;;;-0.60;99.90;;;;;;5029127;28;20202;-72
2022/02/27 02:41:07;;;;;;;16.57;7.20;;;-0.70;99.90;;;;;;5036406;28;20204;-71
2022/02/27 02:43:36;;;;;;;15.87;7.17;;;-0.70;99.90;;;;;;5027943;28;20247;-72
2022/02/27 02:46:05;;;;;;;18.23;7.80;;;-0.70;99.90;;;;;;5029454;28;20185;-72
2022/02/27 02:48:33;;;;;;;15.47;7.33;;;-0.70;99.90;;;;;;5029968;28;20198;-71
2022/02/27 02:51:05;;;;;;;18.40;7.80;;;-0.70;99.90;;;;;;5035457;28;20599;-72
2022/02/27 02:53:39;;;;;;;21.63;7.27;;;-0.80;99.90;;;;;;5039811;28;20190;-71
2022/02/27 02:56:08;;;;;;;20.47;7.70;;;-0.70;99.90;;;;;;5029404;28;20224;-71
2022/02/27 02:58:39;;;;;;;21.30;8.00;;;-0.70;99.90;;;;;;5035070;28;20255;-72
2022/02/27 03:01:08;;;;;;;17.77;7.37;;;-0.80;99.90;;;;;;5029957;28;20252;-71
2022/02/27 03:03:38;;;;;;;22.40;7.60;;;-0.70;99.90;;;;;;5030674;28;20208;-72
2022/02/27 03:06:08;;;;;;;20.47;7.40;;;-0.70;99.90;;;;;;5032876;28;20185;-71
2022/02/27 03:08:37;;;;;;;15.30;7.43;;;-0.80;99.90;;;;;;5023669;28;20235;-72
2022/02/27 03:11:07;;;;;;;14.13;7.10;;;-0.70;99.90;;;;;;5023064;28;20198;-71
2022/02/27 03:13:37;;;;;;;27.13;8.07;;;-0.70;99.90;;;;;;5024078;28;20205;-71
2022/02/27 03:16:09;;;;;;;19.37;7.57;;;-0.80;99.90;;;;;;5022081;28;20205;-71
2022/02/27 03:18:38;;;;;;;17.77;7.43;;;-0.80;99.90;;;;;;5031178;28;20208;-71
2022/02/27 03:21:08;;;;;;;22.60;7.60;;;-0.90;99.90;;;;;;5029261;28;20200;-73
2022/02/27 03:23:37;;;;;;;17.50;7.30;;;-0.90;99.90;;;;;;5045131;28;20677;-73
2022/02/27 03:26:09;;;;;;;16.37;7.13;;;-0.90;99.90;;;;;;5026469;28;20202;-73
2022/02/27 03:28:38;;;;;;;20.47;7.93;;;-0.80;99.90;;;;;;5030141;28;20288;-73
2022/02/27 03:31:06;;;;;;;22.93;6.67;;;-0.90;99.90;;;;;;5027957;28;20200;-73
2022/02/27 03:33:35;;;;;;;18.77;6.97;;;-0.90;99.90;;;;;;5029800;28;20238;-73
2022/02/27 03:36:04;;;;;;;18.70;6.17;;;-1.00;99.90;;;;;;5032434;28;20217;-72
2022/02/27 03:38:32;;;;;;;16.10;6.90;;;-1.00;99.90;;;;;;5034355;28;20197;-73
2022/02/27 03:41:01;;;;;;;15.13;6.73;;;-1.00;99.90;;;;;;5031208;28;20285;-73
2022/02/27 03:43:30;;;;;;;20.93;7.40;;;-1.00;99.90;;;;;;5034577;28;20196;-73
2022/02/27 03:46:00;;;;;;;20.43;6.60;;;-1.00;99.90;;;;;;5031987;28;20201;-72
2022/02/27 03:48:29;;;;;;;13.63;5.87;;;-1.10;99.90;;;;;;5025584;28;20205;-72
2022/02/27 03:50:58;;;;;;;18.03;6.80;;;-1.10;99.90;;;;;;5029075;28;20210;-73
2022/02/27 03:53:27;;;;;;;11.93;6.43;;;-1.10;99.90;;;;;;5029389;28;20275;-73
2022/02/27 03:55:55;;;;;;;18.40;6.67;;;-1.20;99.90;;;;;;5026594;28;20304;-70
2022/02/27 03:58:24;;;;;;;10.40;6.47;;;-1.20;99.90;;;;;;5030406;28;20304;-72
2022/02/27 04:00:53;;;;;;;9.47;5.90;;;-1.30;99.90;;;;;;5037621;28;21375;-71
2022/02/27 04:03:22;;;;;;;19.50;6.37;;;-1.40;99.90;;;;;;5031657;28;20295;-71
2022/02/27 04:05:51;;;;;;;18.37;6.77;;;-1.50;99.90;;;;;;5024463;28;20216;-73
2022/02/27 04:08:19;;;;;;;14.63;6.27;;;-1.60;99.90;;;;;;5026169;28;20225;-73
2022/02/27 04:10:48;;;;;;;15.70;5.90;;;-1.70;99.90;;;;;;5030754;28;20216;-72
2022/02/27 04:13:16;;;;;;;13.73;6.37;;;-1.80;99.90;;;;;;5034041;28;20193;-73
2022/02/27 04:15:45;;;;;;;15.70;6.80;;;-1.80;99.90;;;;;;5030623;28;20205;-72
2022/02/27 04:18:15;;;;;;;17.47;7.00;;;-1.90;99.90;;;;;;5025464;28;20217;-73
2022/02/27 04:20:43;;;;;;;16.97;7.13;;;-1.90;99.90;;;;;;5022712;28;20196;-72
2022/02/27 04:23:12;;;;;;;18.60;7.23;;;-2.00;99.90;;;;;;5026061;28;20255;-72
2022/02/27 04:25:41;;;;;;;18.57;6.60;;;-2.00;99.90;;;;;;5019144;28;20206;-72
2022/02/27 04:28:09;;;;;;;13.20;6.83;;;-2.10;99.90;;;;;;5027010;28;20206;-70
2022/02/27 04:30:38;;;;;;;19.20;6.93;;;-2.10;99.90;;;;;;5024319;28;20257;-71
2022/02/27 04:33:07;;;;;;;18.83;6.80;;;-2.20;99.90;;;;;;5030515;28;20194;-71
2022/02/27 04:35:37;;;;;;;15.10;6.30;;;-2.20;99.90;;;;;;5022623;28;20285;-72
2022/02/27 04:38:06;;;;;;;21.33;6.73;;;-2.20;99.90;;;;;;5032496;28;20227;-71
2022/02/27 04:40:37;;;;;;;21.03;7.50;;;-2.00;99.90;;;;;;5028688;28;20228;-70
2022/02/27 04:43:05;;;;;;;19.17;6.87;;;-2.00;99.90;;;;;;5031749;28;20202;-72
2022/02/27 04:45:33;;;;;;;19.47;6.67;;;-2.00;99.90;;;;;;5028986;28;20586;-72
2022/02/27 04:48:02;;;;;;;20.80;6.67;;;-1.90;99.90;;;;;;5039780;28;20198;-71
2022/02/27 04:50:33;;;;;;;15.50;6.20;;;-1.90;99.90;;;;;;5025639;28;20705;-72
2022/02/27 04:53:03;;;;;;;19.27;6.13;;;-1.90;99.90;;;;;;5012724;28;20190;-72
2022/02/27 04:55:31;;;;;;;22.27;6.23;;;-1.80;99.90;;;;;;5025087;28;20194;-72
2022/02/27 04:58:00;;;;;;;19.13;6.13;;;-1.90;99.90;;;;;;5030865;28;20220;-72
2022/02/27 05:00:29;;;;;;;17.60;6.17;;;-1.90;99.90;;;;;;5021524;28;20200;-72
2022/02/27 05:03:11;;;;;;;19.17;6.37;;;-1.90;99.90;;;;;;5021895;28;20198;-72
2022/02/27 05:06:17;;;;;;;12.73;6.17;;;-1.90;99.90;;;;;;5022614;28;20563;-72
2022/02/27 05:08:47;;;;;;;22.50;7.00;;;-1.80;99.90;;;;;;5021372;28;20233;-72
2022/02/27 05:11:16;;;;;;;19.80;6.43;;;-1.80;99.90;;;;;;5017595;28;20267;-72
2022/02/27 05:13:44;;;;;;;20.73;5.83;;;-1.70;99.90;;;;;;5026489;28;20208;-72
2022/02/27 05:16:12;;;;;;;22.03;5.97;;;-1.70;99.90;;;;;;5030828;28;20224;-71
2022/02/27 05:18:41;;;;;;;17.07;5.63;;;-1.60;99.90;;;;;;5029884;28;20735;-72
2022/02/27 05:21:10;;;;;;;9.57;5.03;;;-1.60;99.90;;;;;;5030175;28;20551;-72
2022/02/27 05:23:38;;;;;;;17.20;5.90;;;-1.60;99.90;;;;;;5023513;28;20197;-72
2022/02/27 05:26:08;;;;;;;16.03;5.50;;;-1.60;99.90;;;;;;5026202;28;20224;-71
2022/02/27 05:28:36;;;;;;;13.77;5.23;;;-1.60;99.90;;;;;;5023921;28;20221;-72
2022/02/27 05:31:04;;;;;;;12.37;5.43;;;-1.60;99.90;;;;;;5030731;28;20268;-71
2022/02/27 05:33:33;;;;;;;15.60;5.23;;;-1.70;99.90;;;;;;5030396;28;20236;-73
2022/02/27 05:36:01;;;;;;;12.50;5.43;;;-1.70;99.90;;;;;;5031810;28;20268;-72
2022/02/27 05:38:30;;;;;;;12.70;5.73;;;-1.70;99.90;;;;;;5027909;28;20299;-71
2022/02/27 05:40:58;;;;;;;16.37;5.80;;;-1.70;99.90;;;;;;5033884;28;20300;-72
2022/02/27 05:43:28;;;;;;;22.13;5.03;;;-1.70;99.90;;;;;;5023808;28;20268;-72
2022/02/27 05:45:59;;;;;;;16.83;5.60;;;-1.80;99.90;;;;;;5027893;28;20284;-71
2022/02/27 05:48:28;;;;;;;16.23;5.43;;;-1.80;99.90;;;;;;5033435;28;20207;-72
2022/02/27 05:50:56;;;;;;;14.93;5.23;;;-1.80;99.90;;;;;;5033231;28;20197;-72
2022/02/27 05:53:25;;;;;;;16.67;5.73;;;-1.80;99.90;;;;;;5032418;28;20206;-72
2022/02/27 05:55:56;;;;;;;17.40;4.83;;;-1.80;99.90;;;;;;5030637;28;20281;-72
2022/02/27 05:58:25;;;;;;;16.53;5.07;;;-1.80;99.90;;;;;;5029841;28;20259;-72
2022/02/27 06:00:55;;;;;;;14.67;5.30;;;-1.80;99.90;;;;;;5034278;28;20195;-72
2022/02/27 06:03:23;;;;;;;16.63;4.93;;;-1.70;99.90;;;;;;5032041;28;20679;-72
2022/02/27 06:05:52;;;;;;;11.33;4.77;;;-1.70;99.90;;;;;;5033700;28;20203;-72
2022/02/27 06:08:20;;;;;;;12.80;5.57;;;-1.70;99.90;;;;;;5008970;28;20225;-72
2022/02/27 06:10:49;;;;;;;19.13;5.40;;;-1.60;99.90;;;;;;5024584;28;20285;-72
2022/02/27 06:13:17;;;;;;;16.00;4.97;;;-1.50;99.90;;;;;;5028546;28;20201;-71
2022/02/27 06:15:45;;;;;;;19.23;5.47;;;-1.40;99.90;;;;;;5027703;28;20236;-72
2022/02/27 06:18:15;;;;;;;16.17;5.10;;;-1.50;99.90;;;;;;5027471;28;20206;-72
2022/02/27 06:20:43;;;;;;;14.70;5.13;;;-1.50;99.90;;;;;;5023799;28;20236;-72
2022/02/27 06:23:12;;;;;;;11.87;4.67;;;-1.50;99.90;;;;;;5026715;28;20314;-71
2022/02/27 06:25:40;;;;;;;10.23;4.63;;;-1.50;99.90;;;;;;5026347;28;20233;-72
2022/02/27 06:28:08;;;;;;;16.67;4.67;;;-1.50;99.90;;;;;;5022989;28;21900;-71
2022/02/27 06:30:37;;;;;;;9.47;4.20;;;-1.50;99.90;;;;;;5030013;28;20285;-72
2022/02/27 06:33:05;;;;;;;11.77;4.77;;;-1.60;99.90;;;;;;5027676;28;20269;-71
2022/02/27 06:35:35;;;;;;;15.10;4.33;;;-1.60;99.90;;;;;;5031944;28;20189;-72
2022/02/27 06:38:04;;;;;;;9.93;4.20;;;-1.50;99.90;;;;;;5022317;28;20214;-70
2022/02/27 06:40:33;;;;;;;19.93;5.23;;;-1.50;99.90;;;;;;5031913;28;20291;-72
2022/02/27 06:43:04;;;;;;;10.23;4.37;;;-1.50;99.90;;;;;;5035155;28;20280;-72
2022/02/27 06:45:34;;;;;;;16.00;4.60;;;-1.50;99.90;;;;;;5033610;28;20197;-72
2022/02/27 06:48:02;;;;;;;11.77;4.80;;;-1.50;99.90;;;;;;5028944;28;20311;-71
2022/02/27 06:50:31;;;;;;;14.13;4.37;;;-1.50;99.90;;;;;;5028398;28;20639;-72
2022/02/27 06:53:01;;;;;;;17.10;5.07;;;-1.40;99.90;;;;;;5023387;28;20623;-72
2022/02/27 06:55:29;;;;;;;10.67;4.90;;;-1.40;99.90;;;;;;5040161;28;20200;-71
2022/02/27 06:57:57;;;;;;;16.50;4.77;;;-1.40;99.90;;;;;;5036088;28;20283;-70
2022/02/27 07:00:26;;;;;;;11.27;4.63;;;-1.40;99.90;;;;;;5026658;28;20296;-72
2022/02/27 07:02:55;;;;;;;11.43;5.80;;;-1.50;99.90;;;;;;5025854;28;20201;-71
2022/02/27 07:05:29;;;;;;;6.83;4.23;;;-1.50;99.90;;;;;;5028551;28;20783;-72
2022/02/27 07:07:58;;;;;;;10.67;4.60;;;-1.40;99.90;;;;;;5031510;28;20220;-71
2022/02/27 07:10:28;;;;;;;17.53;5.10;;;-1.30;99.90;;;;;;5026422;28;20691;-72
2022/02/27 07:12:56;;;;;;;10.13;4.50;;;-1.30;99.90;;;;;;5023235;28;20599;-72
2022/02/27 07:15:24;;;;;;;13.93;4.80;;;-1.30;99.90;;;;;;5027809;28;20198;-71
2022/02/27 07:17:53;;;;;;;13.97;4.50;;;-1.30;99.90;;;;;;5031366;28;20655;-67
2022/02/27 07:20:22;;;;;;;10.17;5.00;;;-1.30;99.90;;;;;;5028882;28;20264;-67
2022/02/27 07:22:50;;;;;;;13.30;4.70;;;-1.30;99.90;;;;;;5029239;28;20280;-67
2022/02/27 07:25:19;;;;;;;13.53;4.67;;;-1.20;99.90;;;;;;5027210;28;20186;-67
2022/02/27 07:27:48;;;;;;;15.63;4.53;;;-1.20;99.90;;;;;;5024567;28;20221;-67
2022/02/27 07:30:19;;;;;;;9.87;4.77;;;-1.20;99.90;;;;;;5026667;28;20785;-67
2022/02/27 07:32:48;;;;;;;10.73;4.57;;;-1.10;99.90;;;;;;5036284;28;20228;-67
2022/02/27 07:35:16;;;;;;;15.97;4.57;;;-0.80;99.90;;;;;;5035811;28;20232;-67
2022/02/27 07:37:44;;;;;;;14.03;5.57;;;-0.30;99.90;;;;;;5028655;28;20236;-67
2022/02/27 07:40:13;;;;;;;11.87;4.27;;;0.20;99.90;;;;;;5025246;28;20276;-67
2022/02/27 07:42:41;;;;;;;8.60;4.03;;;0.90;99.90;;;;;;5027521;28;20803;-67
2022/02/27 07:45:12;;;;;;;7.73;4.00;;;1.50;99.90;;;;;;5033996;28;20203;-68
2022/02/27 07:47:40;;;;;;;9.60;4.07;;;2.10;99.90;;;;;;5023787;28;20576;-68
2022/02/27 07:50:09;;;;;;;11.17;4.30;;;2.80;99.90;;;;;;5025717;28;20730;-68
2022/02/27 07:52:38;;;;;;;7.80;3.67;;;3.40;99.90;;;;;;5044920;28;20638;-68
2022/02/27 07:55:07;;;;;;;5.80;3.50;;;3.70;99.90;;;;;;5023594;28;20249;-68
2022/02/27 07:57:35;;;;;;;6.27;3.70;;;4.10;99.90;;;;;;5031058;28;20231;-68
2022/02/27 08:00:06;;;;;;;12.20;3.97;;;4.40;99.90;;;;;;5025796;28;20238;-68
2022/02/27 08:02:35;;;;;;;9.40;3.67;;;4.60;99.90;;;;;;5019987;28;20260;-68
2022/02/27 08:05:05;;;;;;;17.10;4.53;;;4.90;99.90;;;;;;5023152;28;20267;-68
2022/02/27 08:07:33;;;;;;;9.80;3.80;;;5.40;99.90;;;;;;5023638;28;20245;-68
2022/02/27 08:10:02;;;;;;;7.20;3.77;;;5.80;99.90;;;;;;5027584;28;20205;-68
2022/02/27 08:12:31;;;;;;;10.37;3.60;;;5.90;99.90;;;;;;5016149;28;20205;-68
2022/02/27 08:15:00;;;;;;;11.67;3.67;;;6.10;99.90;;;;;;5021411;28;20275;-68
2022/02/27 08:17:28;;;;;;;9.47;4.13;;;6.40;99.90;;;;;;5027021;28;20193;-68
2022/02/27 08:19:58;;;;;;;11.93;3.80;;;6.60;99.90;;;;;;5020472;28;20217;-68
2022/02/27 08:22:27;;;;;;;8.33;4.17;;;6.60;99.90;;;;;;5031202;28;20228;-68
2022/02/27 08:24:55;;;;;;;9.77;4.13;;;7.00;99.90;;;;;;5027538;28;20299;-68
2022/02/27 08:27:24;;;;;;;11.57;3.60;;;7.20;99.90;;;;;;5022200;28;20674;-68
2022/02/27 08:29:52;;;;;;;7.43;3.90;;;7.10;99.90;;;;;;5025083;28;20738;-68
2022/02/27 08:32:21;;;;;;;8.30;3.53;;;7.30;99.90;;;;;;5028710;28;20201;-68
2022/02/27 08:34:49;;;;;;;11.10;4.03;;;7.30;99.90;;;;;;5022960;28;20241;-68
2022/02/27 08:37:19;;;;;;;5.17;3.43;;;7.50;99.90;;;;;;5030254;28;20225;-69
2022/02/27 08:39:47;;;;;;;8.30;4.07;;;7.60;99.90;;;;;;5021173;28;20222;-69
2022/02/27 08:42:16;;;;;;;5.43;3.33;;;7.80;99.90;;;;;;5024754;28;20193;-69
2022/02/27 08:44:44;;;;;;;6.17;3.10;;;8.00;99.90;;;;;;5030108;28;20608;-68
2022/02/27 08:47:13;;;;;;;4.13;2.90;;;8.20;99.90;;;;;;5026750;28;20778;-68
2022/02/27 08:49:41;;;;;;;5.17;3.20;;;8.10;99.90;;;;;;5026618;28;20260;-68
2022/02/27 08:52:12;;;;;;;3.63;2.90;;;7.90;99.90;;;;;;5028763;28;20254;-68
2022/02/27 08:54:46;;;;;;;6.57;3.40;;;8.10;99.90;;;;;;5022323;28;20208;-69
2022/02/27 08:57:14;;;;;;;7.03;2.97;;;8.00;99.90;;;;;;5020428;28;20263;-69
2022/02/27 08:59:44;;;;;;;6.27;2.90;;;8.00;99.90;;;;;;5030302;28;20214;-69
2022/02/27 09:02:13;;;;;;;6.03;3.20;;;8.20;99.90;;;;;;5029767;28;20255;-69
2022/02/27 09:04:41;;;;;;;6.47;3.40;;;8.40;99.90;;;;;;5026911;28;20208;-68
2022/02/27 09:07:10;;;;;;;10.27;3.30;;;8.40;99.90;;;;;;5023767;28;20267;-69
2022/02/27 09:09:38;;;;;;;4.53;2.90;;;8.60;99.90;;;;;;5023337;28;20197;-69
2022/02/27 09:12:09;;;;;;;7.80;2.83;;;8.80;99.90;;;;;;5020187;28;20212;-69
2022/02/27 09:14:37;;;;;;;6.40;3.00;;;9.10;99.90;;;;;;5022538;28;20239;-69
2022/02/27 09:17:06;;;;;;;4.70;3.10;;;9.00;99.90;;;;;;5025563;28;20225;-69
2022/02/27 09:19:34;;;;;;;4.80;2.77;;;9.00;99.90;;;;;;5025476;28;20212;-69
2022/02/27 09:22:04;;;;;;;5.63;2.77;;;9.20;99.90;;;;;;5030147;28;20682;-69
2022/02/27 09:24:33;;;;;;;4.77;2.70;;;9.40;99.90;;;;;;5026841;28;20189;-69
2022/02/27 09:27:01;;;;;;;8.77;2.93;;;9.50;99.90;;;;;;5028616;28;20208;-69
2022/02/27 09:29:31;;;;;;;6.17;2.70;;;9.50;99.90;;;;;;5026606;28;20208;-69
2022/02/27 09:32:00;;;;;;;8.30;2.90;;;9.60;99.90;;;;;;5019248;28;20235;-69
2022/02/27 09:34:28;;;;;;;5.33;2.83;;;9.40;99.90;;;;;;5027767;28;20540;-69
2022/02/27 09:36:57;;;;;;;3.13;2.47;;;9.70;99.90;;;;;;5024236;28;20276;-69
2022/02/27 09:39:27;;;;;;;6.03;2.77;;;9.70;99.90;;;;;;5035533;28;20724;-68
2022/02/27 09:41:56;;;;;;;5.97;2.67;;;9.70;99.90;;;;;;5019844;28;20290;-68
2022/02/27 09:44:25;;;;;;;3.90;2.60;;;9.50;99.90;;;;;;5005321;28;20197;-69
2022/02/27 09:47:01;;;;;;;2.60;2.40;;;9.70;99.90;;;;;;5020269;28;20574;-67
2022/02/27 09:49:30;;;;;;;5.03;2.33;;;9.50;99.90;;;;;;5022339;28;20194;-68
2022/02/27 09:51:58;;;;;;;5.43;3.13;;;9.50;99.90;;;;;;5033006;28;20700;-68
2022/02/27 09:54:27;;;;;;;3.47;2.87;;;9.50;99.90;;;;;;5028339;28;20224;-68
2022/02/27 09:56:58;;;;;;;18.40;9.60;;;9.70;99.90;;;;;;5026592;28;20201;-68
2022/02/27 09:59:26;;;;;;;22.00;11.63;;;9.50;99.90;;;;;;5030181;28;20217;-68
2022/02/27 10:02:01;;;;;;;11.97;6.93;;;9.60;99.90;;;;;;5027431;28;20198;-68
2022/02/27 10:04:35;;;;;;;4.53;2.30;;;10.30;99.90;;;;;;5022774;28;20700;-68
2022/02/27 10:07:09;;;;;;;3.67;2.03;;;10.50;99.90;;;;;;5018717;28;20575;-68
2022/02/27 10:09:38;;;;;;;3.90;2.23;;;10.20;99.90;;;;;;5024092;28;20266;-68
2022/02/27 10:12:15;;;;;;;2.23;1.93;;;10.00;99.90;;;;;;5018861;28;20194;-68
2022/02/27 10:14:59;;;;;;;2.70;2.43;;;10.20;99.90;;;;;;5027870;28;20224;-68
2022/02/27 10:17:31;;;;;;;3.27;2.20;;;10.00;99.90;;;;;;5019758;28;20878;-69
2022/02/27 10:20:05;;;;;;;4.50;2.27;;;10.30;99.90;;;;;;5021153;28;20205;-68
2022/02/27 10:22:35;;;;;;;4.63;2.17;;;10.50;99.90;;;;;;5023510;28;20770;-68
2022/02/27 10:25:07;;;;;;;3.80;2.30;;;10.80;99.90;;;;;;5013250;28;20191;-69
2022/02/27 10:27:44;;;;;;;2.47;2.23;;;11.20;99.90;;;;;;5014850;28;20241;-69
2022/02/27 10:30:28;;;;;;;2.80;2.20;;;11.10;99.90;;;;;;5031170;28;20563;-69
2022/02/27 10:32:59;;;;;;;4.70;3.00;;;11.00;99.90;;;;;;5022702;28;20204;-69
2022/02/27 10:35:36;;;;;;;2.60;2.40;;;11.30;99.90;;;;;;5024651;28;20289;-69
2022/02/27 10:38:07;;;;;;;5.33;2.47;;;11.60;99.90;;;;;;5021744;28;20199;-69
2022/02/27 10:40:38;;;;;;;3.10;2.40;;;11.50;99.90;;;;;;5034016;28;20251;-68
2022/02/27 10:43:09;;;;;;;2.60;2.27;;;10.80;99.90;;;;;;5020081;28;20660;-68
2022/02/27 10:45:38;;;;;;;3.27;2.33;;;10.90;99.90;;;;;;5031046;28;20278;-69
2022/02/27 10:48:13;;;;;;;4.10;2.47;;;10.90;99.90;;;;;;5025233;28;20674;-69
2022/02/27 10:50:43;;;;;;;3.03;2.20;;;11.10;99.90;;;;;;5033537;28;20220;-69
2022/02/27 10:53:14;;;;;;;6.80;2.60;;;11.50;99.90;;;;;;5008507;28;20611;-69
2022/02/27 10:55:43;;;;;;;2.13;2.03;;;11.50;99.90;;;;;;5015303;28;20225;-69
2022/02/27 10:58:12;;;;;;;3.03;2.10;;;11.50;99.90;;;;;;5024850;28;20221;-69
2022/02/27 11:00:41;;;;;;;4.67;2.40;;;11.60;99.90;;;;;;5026178;28;20293;-69
2022/02/27 11:03:13;;;;;;;2.30;2.10;;;11.90;99.90;;;;;;5026555;28;20209;-69
2022/02/27 11:05:44;;;;;;;1.93;1.80;;;12.20;99.90;;;;;;5031583;28;20201;-70
2022/02/27 11:08:14;;;;;;;6.73;2.47;;;12.30;99.90;;;;;;5036346;28;20363;-69
2022/02/27 11:10:43;;;;;;;2.20;1.90;;;11.90;99.90;;;;;;5015797;28;20264;-70
2022/02/27 11:13:15;;;;;;;2.70;2.50;;;11.70;99.90;;;;;;5016018;28;20699;-69
2022/02/27 11:15:43;;;;;;;2.17;1.67;;;12.00;99.90;;;;;;5030745;28;20570;-69
2022/02/27 11:18:16;;;;;;;2.60;2.10;;;12.30;99.90;;;;;;5027445;28;20208;-69
2022/02/27 11:20:45;;;;;;;1.83;1.40;;;12.30;99.90;;;;;;5026313;28;20214;-70
2022/02/27 11:23:15;;;;;;;1.70;1.60;;;12.30;99.40;;;;;;5016794;28;20194;-70
2022/02/27 11:25:44;;;;;;;3.10;1.70;;;12.20;99.80;;;;;;5033086;28;20255;-69
2022/02/27 11:28:17;;;;;;;1.80;1.70;;;11.80;99.50;;;;;;5028548;28;20198;-69
2022/02/27 11:30:48;;;;;;;2.57;1.80;;;11.90;99.90;;;;;;5030248;28;20417;-69
2022/02/27 11:33:23;;;;;;;1.90;1.80;;;12.00;99.60;;;;;;5021530;28;20673;-70
2022/02/27 11:35:52;;;;;;;2.37;2.00;;;12.40;99.90;;;;;;5023688;28;20611;-69
2022/02/27 11:38:32;;;;;;;1.77;1.60;;;12.40;98.70;;;;;;5021976;28;20652;-69
2022/02/27 11:41:10;;;;;;;3.57;1.67;;;12.70;98.80;;;;;;5022522;28;20296;-70
2022/02/27 11:43:42;;;;;;;1.77;1.67;;;12.70;98.90;;;;;;5023692;28;20197;-71
2022/02/27 11:46:11;;;;;;;3.27;1.60;;;12.70;98.30;;;;;;5029652;28;20205;-71
2022/02/27 11:49:02;;;;;;;2.03;1.73;;;13.20;99.00;;;;;;5019830;28;20592;-71
2022/02/27 11:51:44;;;;;;;1.50;1.40;;;13.50;98.20;;;;;;5031976;28;20230;-71
2022/02/27 11:54:15;;;;;;;1.70;1.60;;;13.80;97.40;;;;;;5032062;28;20197;-70
2022/02/27 11:56:45;;;;;;;1.63;1.53;;;13.60;96.70;;;;;;5026867;28;20197;-70
2022/02/27 11:59:14;;;;;;;1.80;1.53;;;12.90;96.90;;;;;;5014645;28;20190;-69
2022/02/27 12:01:56;;;;;;;2.00;1.70;;;12.80;97.40;;;;;;5027426;28;20206;-70
2022/02/27 12:04:29;;;;;;;2.30;2.10;;;12.60;98.00;;;;;;5027511;28;20201;-70
2022/02/27 12:07:00;;;;;;;2.03;1.80;;;12.60;98.40;;;;;;5022771;28;20197;-70
2022/02/27 12:10:02;;;;;;;1.90;1.80;;;12.90;97.70;;;;;;5011772;28;20604;-70
2022/02/27 12:12:58;;;;;;;2.40;1.70;;;13.30;99.30;;;;;;5021507;28;20225;-71
2022/02/27 12:15:32;;;;;;;2.53;1.87;;;13.30;97.30;;;;;;5026642;28;20269;-70
2022/02/27 12:18:05;;;;;;;1.80;1.70;;;13.10;96.90;;;;;;5022516;28;20676;-71
2022/02/27 12:20:53;;;;;;;2.13;1.70;;;12.80;96.80;;;;;;5024107;28;20237;-71
2022/02/27 12:23:50;;;;;;;1.80;1.63;;;13.00;98.10;;;;;;5024478;28;20198;-71
2022/02/27 12:26:48;;;;;;;1.47;1.40;;;13.30;97.60;;;;;;5032454;28;20292;-70
2022/02/27 12:29:34;;;;;;;2.30;2.00;;;13.00;97.40;;;;;;5031728;28;20192;-70
2022/02/27 12:32:15;;;;;;;1.63;1.60;;;12.80;96.90;;;;;;5025135;28;20214;-71
2022/02/27 12:34:46;;;;;;;1.77;1.67;;;12.60;97.10;;;;;;5021722;28;20202;-70
2022/02/27 12:37:17;;;;;;;1.90;1.80;;;12.50;96.80;;;;;;5009664;28;20264;-71
2022/02/27 12:39:48;;;;;;;1.90;1.60;;;12.60;96.50;;;;;;5026386;28;20209;-70
2022/02/27 12:42:19;;;;;;;2.43;1.70;;;12.70;97.20;;;;;;5023491;28;20282;-71
2022/02/27 12:44:50;;;;;;;1.83;1.73;;;12.60;95.50;;;;;;5015201;28;20202;-70
2022/02/27 12:47:21;;;;;;;1.40;1.40;;;12.60;96.40;;;;;;5022778;28;20205;-71
2022/02/27 12:52:39;;;;;;;1.60;1.50;;;12.90;96.40;;;;;;5021358;28;20267;-71
2022/02/27 12:55:10;;;;;;;1.50;1.40;;;12.70;95.70;;;;;;5015665;28;20228;-71
2022/02/27 12:57:47;;;;;;;3.23;1.60;;;12.80;96.70;;;;;;5027844;28;20259;-71
2022/02/27 13:00:17;;;;;;;6.80;1.63;;;12.90;95.90;;;;;;5029843;28;20566;-71